Search for airport 
image banner adimage banner adimage banner ad
image banner ad

CN52 - Oroville Hospital

Located in Oroville, United States

ICAO - CN52, IATA -

Data provided by Airmate  

General information

Coordinates: N39°30'27" W121°32'30"
Elevation is 255 feet MSL.
Magnetic variation is 14° East
View others Airports in California

Operational data

Special qualification required
Current time UTC:
Current local time:
Weather at : KOVE - Oroville Muni ( 7 km )
METAR: KOVE 141153Z AUTO 15011KT 10SM CLR 19/14 A2996 RMK AO2 SLP147 T01890139 10244 20189 53007
View NOTAMs / SUP AIP / TFR affecting this airport [VIEW]
Communications frequencies: [VIEW]

Runways:

Airport contact information

Address: Oroville United States

Satellite view of CN52